• Join FlightAware (Why Join?)
  • Login
  • US Flag 
03:59PM EDT


 

Airport Tracker/Info


-or-


 

Live Flight TrackerFlight Track Log ✈ UAL1208 ✈ 29-Apr-2013 ✈ KBOS - KDEN

Flight Track Log - Related Links

Times and Time Zones

All times are in EDT time to prevent confusion due to time zone crossing. See the UAL1208 flight status page for this flight to view local times or setup timezone preferences in your user account.

Time Position Orientation Groundspeed Altitude Reporting Facility
EDT Latitude Longitude Course Direction KTS MPH feet Rate Location/Type
07:19PM 42.3140 -70.9780 124° Southeast 220 253 2,500  Level FlightAware
07:19PM 42.3070 -70.9470 107° East 229 264 3,700 2,520 Climbing FlightAware
07:19PM 42.3130 -70.9100 78° East 262 302 4,400 2,640 Climbing FlightAware
07:20PM 42.3190 -70.8780 76° East 262 302 5,700 3,240 Climbing FlightAware
07:20PM 42.3300 -70.8230 75° East 276 318 7,400 2,880 Climbing FlightAware
07:21PM 42.3390 -70.7770 75° East 284 327 8,600 3,060 Climbing FlightAware
07:21PM 42.3550 -70.7510 50° Northeast 287 330 9,700 2,760 Climbing FlightAware
07:21PM 42.3660 -70.7440 25° Northeast 283 326 10,000 1,260 Climbing FlightAware
07:22PM 42.4320 -70.7180 16° North 343 395 10,900 1,200 Climbing FlightAware
07:22PM 42.4740 -70.7270 351° North 369 425 11,400 1,860 Climbing FlightAware
07:23PM 42.5420 -70.7870 327° Northwest 391 450 13,100 2,400 Climbing FlightAware
07:24PM 42.5850 -70.8710 305° West 406 467 14,800 2,460 Climbing FlightAware
07:24PM 42.6270 -70.9560 304° West 414 476 16,400 2,460 Climbing FlightAware
07:25PM 42.6740 -71.0550 303° West 418 481 18,300 2,400 Climbing FlightAware
07:26PM 42.7170 -71.1420 304° West 417 480 19,800 2,100 Climbing FlightAware
07:27PM 42.7610 -71.2460 300° West 424 488 21,300 1,920 Climbing FlightAware
07:27PM 42.7760 -71.3530 281° West 432 497 22,600 1,680 Climbing FlightAware
07:28PM 42.7870 -71.4600 278° West 438 504 23,600 1,440 Climbing FlightAware
07:29PM 42.7990 -71.5840 278° West 447 514 24,700 1,440 Climbing FlightAware
07:29PM 42.8100 -71.6950 278° West 451 519 25,700 1,440 Climbing FlightAware
07:30PM 42.8220 -71.8240 277° West 454 522 26,800 1,740 Climbing FlightAware
07:31PM 42.8330 -71.9370 278° West 444 511 28,200 2,040 Climbing FlightAware
07:32PM 42.8450 -72.0620 278° West 437 503 29,700 1,740 Climbing FlightAware
07:32PM 42.8550 -72.1700 277° West 435 501 30,700 1,320 Climbing FlightAware
07:33PM 42.8630 -72.2560 277° West 434 499 31,400 1,320 Climbing FlightAware
07:34PM 42.8770 -72.4030 277° West 434 499 32,600 1,380 Climbing FlightAware
07:34PM 42.8870 -72.5130 277° West 431 496 33,500 1,320 Climbing FlightAware
07:35PM 42.8980 -72.6360 277° West 427 491 34,500 1,080 Climbing FlightAware
07:36PM 42.9060 -72.7250 277° West 427 491 35,000 900 Climbing FlightAware
07:36PM 42.9170 -72.8460 277° West 428 493 35,700 660 Climbing FlightAware
07:37PM 42.9270 -72.9650 277° West 433 498 36,000 180 Climbing FlightAware
07:38PM 42.9350 -73.0550 277° West 433 498 36,000  Level FlightAware
07:38PM 42.9450 -73.1760 276° West 434 499 36,000  Level FlightAware
07:39PM 42.9540 -73.2860 276° West 434 499 36,000  Level FlightAware
07:40PM 42.9680 -73.4490 277° West 434 499 36,000  Level FlightAware
07:41PM 42.9790 -73.5900 276° West 434 499 36,000  Level FlightAware
07:42PM 42.9860 -73.6820 276° West 434 499 36,000  Level FlightAware
07:42PM 42.9970 -73.8090 277° West 432 497 36,000  Level FlightAware
07:43PM 43.0090 -73.9610 276° West 432 497 36,000  Level FlightAware
07:44PM 43.0150 -74.0400 276° West 435 501 36,000  Level FlightAware
07:45PM 43.0260 -74.1780 276° West 437 503 36,000  Level FlightAware
07:45PM 43.0340 -74.2870 276° West 437 503 36,000  Level FlightAware
07:46PM 43.0430 -74.4060 276° West 437 503 36,000  Level FlightAware
07:47PM 43.0510 -74.5160 276° West 437 503 36,000  Level FlightAware
07:47PM 43.0600 -74.6540 275° West 438 504 36,000  Level FlightAware
07:48PM 43.0680 -74.7630 276° West 438 504 36,000  Level FlightAware
07:49PM 43.0790 -74.9130 276° West 437 503 36,000  Level FlightAware
07:50PM 43.0860 -75.0220 275° West 435 501 36,000  Level FlightAware
07:50PM 43.0930 -75.1310 275° West 434 499 36,000  Level FlightAware
07:51PM 43.1020 -75.2550 276° West 434 499 36,000  Level FlightAware
07:52PM 43.1090 -75.3650 275° West 435 501 36,000  Level FlightAware
07:53PM 43.1170 -75.4840 275° West 434 499 36,000  Level FlightAware
07:53PM 43.1240 -75.5970 275° West 434 499 36,000  Level FlightAware
07:54PM 43.1310 -75.7060 275° West 433 498 36,000  Level FlightAware
07:55PM 43.1380 -75.8280 275° West 433 498 36,000  Level FlightAware
07:55PM 43.1450 -75.9360 275° West 433 498 36,000  Level FlightAware
07:56PM 43.1510 -76.0460 274° West 434 499 36,000  Level FlightAware
07:57PM 43.1580 -76.1680 275° West 436 502 36,000  Level FlightAware
07:57PM 43.1640 -76.2790 274° West 439 505 36,000  Level FlightAware
07:58PM 43.1690 -76.3950 273° West 439 505 36,000  Level FlightAware
07:59PM 43.1730 -76.5160 273° West 441 507 36,000  Level FlightAware
07:59PM 43.1780 -76.6290 274° West 443 510 36,000  Level FlightAware
08:00PM 43.1830 -76.7540 273° West 444 511 36,000  Level FlightAware
08:01PM 43.1870 -76.8680 273° West 445 512 36,000  Level FlightAware
08:02PM 43.1910 -76.9800 273° West 446 513 36,000  Level FlightAware
08:02PM 43.1960 -77.1080 273° West 446 513 36,000  Level FlightAware
08:03PM 43.2000 -77.2200 273° West 447 514 36,000  Level FlightAware
08:04PM 43.2040 -77.3350 273° West 446 513 36,000  Level FlightAware
08:04PM 43.2080 -77.4590 273° West 446 513 36,000  Level FlightAware
08:05PM 43.2120 -77.5850 273° West 444 511 36,000  Level FlightAware
08:06PM 43.2150 -77.6970 272° West 442 509 36,000  Level FlightAware
08:06PM 43.2180 -77.8080 272° West 440 506 36,000  Level FlightAware
08:07PM 43.2220 -77.9270 273° West 437 503 36,000  Level FlightAware
08:08PM 43.2250 -78.0430 272° West 433 498 36,000  Level FlightAware
08:09PM 43.2280 -78.1650 272° West 425 489 36,000  Level FlightAware
08:09PM 43.2310 -78.2730 272° West 418 481 36,000  Level FlightAware
08:10PM 43.2340 -78.3860 272° West 416 479 36,000  Level FlightAware
08:11PM 43.2360 -78.4940 271° West 415 478 36,000  Level FlightAware
08:11PM 43.2390 -78.6010 272° West 418 481 36,000  Level FlightAware
08:12PM 43.2410 -78.7200 271° West 421 484 36,000  Level FlightAware
08:13PM 43.2430 -78.8230 272° West 422 486 36,000  Level FlightAware
08:14PM 43.2460 -78.9450 272° West 425 489 36,000  Level FlightAware
08:14PM 43.2480 -79.0530 271° West 426 490 36,000  Level FlightAware
08:15PM 43.2500 -79.1630 271° West 425 489 36,000  Level FlightAware
08:16PM 43.2520 -79.2850 271° West 425 489 36,000  Level FlightAware
08:16PM 43.2530 -79.3910 271° West 426 490 36,000  Level FlightAware
08:17PM 43.2550 -79.5110 271° West 426 490 36,000  Level FlightAware
08:18PM 43.2570 -79.6140 272° West 426 490 36,000  Level FlightAware
08:18PM 43.2580 -79.7290 271° West 425 489 36,000  Level FlightAware
08:19PM 43.2590 -79.8460 271° West 425 489 36,000  Level FlightAware
08:20PM 43.2610 -79.9560 271° West 424 488 36,000  Level FlightAware
08:21PM 43.2620 -80.0750 271° West 422 486 36,000  Level FlightAware
08:21PM 43.2630 -80.1830 271° West 421 484 36,000  Level FlightAware
08:22PM 43.2630 -80.2810 270° West 420 483 36,000  Level FlightAware
08:23PM 43.2640 -80.4010 271° West 419 482 36,000  Level FlightAware
08:23PM 43.2650 -80.5130 271° West 418 481 36,000  Level FlightAware
08:24PM 43.2660 -80.6190 271° West 417 480 36,000  Level FlightAware
08:25PM 43.2660 -80.7340 270° West 417 480 36,000  Level FlightAware
08:25PM 43.2660 -80.8430 270° West 417 480 36,000  Level FlightAware
08:26PM 43.2670 -80.9630 271° West 416 479 36,000  Level FlightAware
08:27PM 43.2670 -81.0680 270° West 415 478 36,000  Level FlightAware
08:27PM 43.2670 -81.1700 270° West 415 478 36,000  Level FlightAware
08:28PM 43.2670 -81.2910 270° West 416 479 36,000  Level FlightAware
08:29PM 43.2660 -81.3940 269° West 420 483 36,000  Level FlightAware
08:30PM 43.2660 -81.5040 270° West 422 486 36,000  Level FlightAware
08:30PM 43.2660 -81.6220 270° West 423 487 36,000  Level FlightAware
08:31PM 43.2650 -81.7300 269° West 422 486 36,000  Level FlightAware
08:32PM 43.2650 -81.8340 270° West 422 486 36,000  Level FlightAware
08:32PM 43.2640 -81.9510 269° West 422 486 36,000  Level FlightAware
08:33PM 43.2630 -82.0620 269° West 422 486 36,000  Level FlightAware
08:34PM 43.2620 -82.1680 269° West 422 486 36,000  Level FlightAware
08:34PM 43.2610 -82.2910 269° West 422 486 36,000  Level FlightAware
08:35PM 43.2600 -82.4140 269° West 423 487 36,000  Level FlightAware
08:36PM 43.2580 -82.5470 269° West 423 487 36,000  Level FlightAware
08:37PM 43.2570 -82.6380 269° West 423 487 36,000  Level FlightAware
08:38PM 43.2560 -82.7730 269° West 423 487 36,000  Level FlightAware
08:38PM 43.2560 -82.8740 270° West 422 486 36,000  Level FlightAware
08:39PM 43.2560 -82.9690 270° West 420 483 36,000  Level FlightAware
08:40PM 43.2550 -83.1000 269° West 417 480 36,000  Level FlightAware
08:40PM 43.2550 -83.2080 270° West 414 476 36,000  Level FlightAware
08:41PM 43.2540 -83.3410 269° West 412 474 36,000  Level FlightAware
08:42PM 43.2530 -83.4160 269° West 412 474 36,000  Level FlightAware
08:42PM 43.2520 -83.5340 269° West 413 475 36,000  Level FlightAware
08:43PM 43.2520 -83.6460 270° West 416 479 36,000  Level FlightAware
08:44PM 43.2510 -83.7450 269° West 417 480 36,000  Level FlightAware
08:44PM 43.2490 -83.8660 269° West 418 481 36,000  Level FlightAware
08:45PM 43.2480 -83.9820 269° West 420 483 36,000  Level FlightAware
08:46PM 43.2470 -84.0680 269° West 421 484 36,000  Level FlightAware
08:47PM 43.2450 -84.2300 269° West 424 488 36,000  Level FlightAware
08:47PM 43.2430 -84.3360 269° West 426 490 36,000  Level FlightAware
08:48PM 43.2410 -84.4560 269° West 428 493 36,000  Level FlightAware
08:49PM 43.2400 -84.5650 269° West 430 495 36,000  Level FlightAware
08:49PM 43.2380 -84.6730 269° West 431 496 36,000  Level FlightAware
08:50PM 43.2360 -84.7980 269° West 430 495 36,000  Level FlightAware
08:51PM 43.2330 -84.9060 268° West 429 494 36,000  Level FlightAware
08:52PM 43.2310 -85.0260 269° West 427 491 36,000  Level FlightAware
08:52PM 43.2290 -85.1380 269° West 426 490 36,000  Level FlightAware
08:53PM 43.2260 -85.2420 268° West 425 489 36,000  Level FlightAware
08:54PM 43.2240 -85.3640 269° West 424 488 36,000  Level FlightAware
08:54PM 43.2210 -85.4710 268° West 423 487 36,000  Level FlightAware
08:55PM 43.2180 -85.5800 268° West 422 486 36,000  Level FlightAware
08:56PM 43.2150 -85.6970 268° West 422 486 36,000  Level FlightAware
08:56PM 43.2120 -85.8080 268° West 421 484 36,000  Level FlightAware
08:57PM 43.2090 -85.9260 268° West 420 483 36,000  Level FlightAware
08:58PM 43.2060 -86.0270 268° West 420 483 36,000  Level FlightAware
08:59PM 43.2020 -86.1480 267° West 420 483 36,000  Level FlightAware
08:59PM 43.1990 -86.2580 268° West 419 482 36,000  Level FlightAware
09:00PM 43.1950 -86.3550 267° West 418 481 36,000  Level FlightAware
09:01PM 43.1910 -86.4790 268° West 418 481 36,000  Level FlightAware
09:01PM 43.1880 -86.5870 268° West 417 480 36,000  Level FlightAware
09:02PM 43.1840 -86.6900 267° West 416 479 36,000  Level FlightAware
09:03PM 43.1800 -86.8030 267° West 415 478 36,000  Level FlightAware
09:03PM 43.1760 -86.9090 267° West 416 479 36,000  Level FlightAware
09:04PM 43.1720 -87.0180 267° West 415 478 36,000  Level FlightAware
09:05PM 43.1680 -87.1350 267° West 416 479 36,000  Level FlightAware
09:05PM 43.1640 -87.2420 267° West 417 480 36,000  Level FlightAware
09:06PM 43.1590 -87.3600 267° West 419 482 36,000  Level FlightAware
09:07PM 43.1540 -87.4670 266° West 420 483 36,000  Level FlightAware
09:08PM 43.1490 -87.5740 266° West 421 484 36,000  Level FlightAware
09:08PM 43.1440 -87.6910 267° West 421 484 36,000  Level FlightAware
09:09PM 43.1390 -87.8110 267° West 421 484 36,000  Level FlightAware
09:10PM 43.1340 -87.9180 266° West 420 483 36,000  Level FlightAware
09:10PM 43.1290 -88.0370 267° West 419 482 36,000  Level FlightAware
09:11PM 43.1240 -88.1440 266° West 419 482 36,000  Level FlightAware
09:12PM 43.1180 -88.2610 266° West 417 480 36,000  Level FlightAware
09:13PM 43.1180 -88.3640 270° West 415 478 36,000  Level FlightAware
09:13PM 43.1200 -88.4720 271° West 416 479 36,000  Level FlightAware
09:14PM 43.1220 -88.5790 272° West 417 480 36,000  Level FlightAware
09:15PM 43.1230 -88.6970 271° West 418 481 36,000  Level FlightAware
09:15PM 43.1250 -88.8160 271° West 421 484 36,000  Level FlightAware
09:16PM 43.1260 -88.9220 271° West 422 486 36,000  Level FlightAware
09:17PM 43.1280 -89.0270 272° West 424 488 36,000  Level FlightAware
09:17PM 43.1290 -89.1450 271° West 425 489 36,000  Level FlightAware
09:18PM 43.1300 -89.2580 271° West 424 488 36,000  Level FlightAware
09:19PM 43.1310 -89.3760 271° West 423 487 36,000  Level FlightAware
09:20PM 43.1320 -89.4800 271° West 423 487 36,000  Level FlightAware
09:20PM 43.1320 -89.5890 270° West 422 486 36,000  Level FlightAware
09:21PM 43.1330 -89.7080 271° West 424 488 36,000  Level FlightAware
09:22PM 43.1330 -89.8180 270° West 425 489 36,000  Level FlightAware
09:22PM 43.1340 -89.9270 271° West 426 490 36,000  Level FlightAware
09:23PM 43.1340 -90.0440 270° West 428 493 36,000  Level FlightAware
09:24PM 43.1340 -90.1450 270° West 429 494 36,000  Level FlightAware
09:25PM 43.1350 -90.3160 271° West 432 497 36,000  Level FlightAware
09:25PM 43.1340 -90.4200 269° West 433 498 36,000  Level FlightAware
09:26PM 43.1340 -90.5350 270° West 432 497 36,000  Level FlightAware
09:27PM 43.1340 -90.6530 270° West 432 497 36,000  Level FlightAware
09:27PM 43.1340 -90.7470 270° West 432 497 36,000  Level FlightAware
09:28PM 43.1330 -90.9050 270° West 433 498 36,000  Level FlightAware
09:29PM 43.1320 -91.0350 269° West 431 496 36,000  Level FlightAware
09:30PM 43.1310 -91.1830 270° West 430 495 36,000  Level FlightAware
09:31PM 43.1300 -91.2930 269° West 430 495 36,000  Level FlightAware
09:31PM 43.1290 -91.4150 269° West 430 495 36,000  Level FlightAware
09:32PM 43.1280 -91.5260 269° West 428 493 36,000  Level FlightAware
09:33PM 43.1260 -91.6750 269° West 427 491 36,000  Level FlightAware
09:34PM 43.1250 -91.7990 269° West 426 490 36,000  Level FlightAware
09:34PM 43.1230 -91.9080 269° West 426 490 36,000  Level FlightAware
09:35PM 43.1220 -92.0250 269° West 426 490 36,000  Level FlightAware
09:36PM 43.1200 -92.1230 268° West 427 491 36,000  Level FlightAware
09:37PM 43.1180 -92.2420 269° West 429 494 36,000  Level FlightAware
09:37PM 43.1160 -92.3660 269° West 430 495 36,000  Level FlightAware
09:38PM 43.1140 -92.4750 269° West 432 497 36,000  Level FlightAware
09:39PM 43.1120 -92.5960 269° West 433 498 36,000  Level FlightAware
09:39PM 43.1090 -92.7030 268° West 433 498 36,000  Level FlightAware
09:40PM 43.1070 -92.8140 269° West 431 496 36,000  Level FlightAware
09:41PM 43.1050 -92.9220 269° West 428 493 36,000  Level FlightAware
09:41PM 43.1020 -93.0440 268° West 424 488 36,000  Level FlightAware
09:42PM 43.0990 -93.1630 268° West 425 489 36,000  Level FlightAware
09:43PM 43.0960 -93.2690 268° West 424 488 36,000  Level FlightAware
09:44PM 43.0900 -93.3770 266° West 427 491 36,000  Level FlightAware
09:44PM 43.0790 -93.5010 263° West 427 491 36,000  Level FlightAware
09:45PM 43.0690 -93.6060 263° West 427 491 36,000  Level FlightAware
09:46PM 43.0590 -93.7130 263° West 427 491 36,000  Level FlightAware
09:46PM 43.0470 -93.8320 262° West 426 490 36,000  Level FlightAware
09:47PM 43.0370 -93.9370 263° West 426 490 36,000  Level FlightAware
09:48PM 43.0250 -94.0610 263° West 425 489 36,000  Level FlightAware
09:48PM 43.0180 -94.1350 263° West 424 488 36,000  Level FlightAware
09:49PM 43.0060 -94.2440 261° West 424 488 36,000  Level FlightAware
09:50PM 42.9920 -94.3860 262° West 423 487 36,000  Level FlightAware
09:51PM 42.9810 -94.4940 262° West 423 487 36,000  Level FlightAware
09:51PM 42.9690 -94.6120 262° West 423 487 36,000  Level FlightAware
09:52PM 42.9610 -94.6850 262° West 422 486 36,000  Level FlightAware
09:53PM 42.9490 -94.7930 261° West 422 486 36,000  Level FlightAware
09:53PM 42.9350 -94.9370 262° West 419 482 36,000  Level FlightAware
09:54PM 42.9240 -95.0370 261° West 418 481 36,000  Level FlightAware
09:55PM 42.9130 -95.1260 260° West 418 481 36,000  Level FlightAware
09:55PM 42.9030 -95.2140 261° West 418 481 36,000  Level FlightAware
09:56PM 42.8900 -95.3250 261° West 418 481 36,000  Level FlightAware
09:57PM 42.8800 -95.4140 261° West 418 481 36,000  Level FlightAware
09:58PM 42.8700 -95.5030 261° West 418 481 36,000  Level FlightAware
09:58PM 42.8590 -95.5910 260° West 418 481 36,000  Level FlightAware
09:59PM 42.8490 -95.6800 261° West 418 481 36,000  Level FlightAware
10:00PM 42.8390 -95.7680 261° West 418 481 36,000  Level FlightAware
10:00PM 42.8260 -95.8790 261° West 418 481 36,000  Level FlightAware
10:01PM 42.8150 -95.9670 260° West 418 481 36,000  Level FlightAware
10:02PM 42.8050 -96.0560 261° West 418 481 36,000  Level FlightAware
10:02PM 42.7950 -96.1450 261° West 418 481 36,000  Level FlightAware
10:03PM 42.7850 -96.2330 261° West 418 481 36,000  Level FlightAware
10:04PM 42.7189 -96.5831 261° West 416 479 36,000  Level Minneapolis Center
10:05PM 42.6747 -96.7542 251° West 421 484 36,000  Level Minneapolis Center
10:06PM 42.6358 -96.9017 250° West 418 481 36,000  Level Minneapolis Center
10:07PM 42.5961 -97.0500 250° West 419 482 36,000  Level Minneapolis Center
10:08PM 42.5561 -97.1972 250° West 417 480 36,000  Level Minneapolis Center
10:09PM 42.5167 -97.3450 250° West 418 481 36,000  Level Minneapolis Center
10:10PM 42.4767 -97.4922 250° West 418 481 36,000  Level Minneapolis Center
10:11PM 42.4364 -97.6394 250° West 417 480 36,000  Level Minneapolis Center
10:12PM 42.3969 -97.7864 250° West 418 481 36,000  Level Minneapolis Center
10:13PM 42.3514 -97.9506 249° West 418 481 36,000  Level Minneapolis Center
10:14PM 42.3100 -98.0972 249° West 419 482 36,000  Level Minneapolis Center
10:15PM 42.2697 -98.2453 250° West 421 484 36,000  Level Minneapolis Center
10:16PM 42.2275 -98.3919 249° West 421 484 36,000  Level Minneapolis Center
10:17PM 42.1864 -98.5383 249° West 419 482 36,000  Level Minneapolis Center
10:18PM 42.1447 -98.6858 249° West 421 484 36,000  Level Minneapolis Center
10:19PM 42.1028 -98.8325 249° West 421 484 36,000  Level Minneapolis Center
10:20PM 42.0608 -98.9792 249° West 421 484 36,000  Level Minneapolis Center
10:21PM 42.0083 -99.1567 248° West 426 490 36,000  Level Denver Center
10:22PM 41.9658 -99.3025 249° West 423 487 36,000  Level Denver Center
10:24PM 41.9228 -99.4492 249° West 422 486 36,000  Level Denver Center
10:25PM 41.8797 -99.5983 249° West 428 493 36,000  Level Denver Center
10:26PM 41.8314 -99.7606 248° West 422 486 36,000  Level Denver Center
10:27PM 41.7900 -99.8989 248° West 421 484 36,000  Level Denver Center
10:28PM 41.7481 -100.0378 248° West 420 483 36,000  Level Denver Center
10:29PM 41.7008 -100.1981 249° West 418 481 36,000  Level Denver Center
10:30PM 41.6594 -100.3322 248° West 412 474 36,000  Level Denver Center
10:31PM 41.6114 -100.4886 248° West 410 472 36,000  Level Denver Center
10:32PM 41.5711 -100.6214 248° West 405 466 36,000 -240 Level Denver Center
10:37PM 41.3100 -101.3810 248° West 412 474 34,500 -360 Descending FlightAware
10:38PM 41.2780 -101.4730 245° Southwest 413 475 34,000 -480 Descending FlightAware
10:38PM 41.2549 -101.5400 245° Southwest 412 474 34,000  Level FlightAware ADS-B
10:39PM 41.2311 -101.6090 245° Southwest 411 473 34,000  Level FlightAware ADS-B
10:39PM 41.2054 -101.6820 245° Southwest 411 473 34,000  Level FlightAware ADS-B
10:40PM 41.1811 -101.7510 245° Southwest 411 473 34,000  Level FlightAware ADS-B
10:40PM 41.1569 -101.8200 245° Southwest 410 472 34,000  Level FlightAware ADS-B
10:41PM 41.1324 -101.8890 245° Southwest 412 474 34,000  Level FlightAware ADS-B
10:41PM 41.1080 -101.9580 245° Southwest 412 474 34,000  Level FlightAware ADS-B
10:42PM 41.0833 -102.0280 245° Southwest 413 475 34,000  Level FlightAware ADS-B
10:42PM 41.0587 -102.0970 245° Southwest 413 475 34,000  Level FlightAware ADS-B
10:43PM 41.0334 -102.1680 245° Southwest 413 475 34,000  Level FlightAware ADS-B
10:43PM 41.0082 -102.2390 245° Southwest 418 481 34,000  Level FlightAware ADS-B
10:44PM 40.9816 -102.3130 245° Southwest 417 480 34,000  Level FlightAware ADS-B
10:44PM 40.9567 -102.3830 245° Southwest 415 478 34,000  Level FlightAware ADS-B
10:45PM 40.9316 -102.4520 244° Southwest 416 479 34,000  Level FlightAware ADS-B
10:45PM 40.9053 -102.5250 245° Southwest 417 480 34,000  Level FlightAware ADS-B
10:46PM 40.8803 -102.5940 244° Southwest 417 480 34,000  Level FlightAware ADS-B
10:47PM 40.8553 -102.6630 244° Southwest 417 480 34,000 -420 Level FlightAware ADS-B
10:47PM 40.8299 -102.7340 245° Southwest 420 483 33,600 -900 Descending FlightAware ADS-B
10:48PM 40.8044 -102.8030 244° Southwest 424 488 33,100 -1,020 Descending FlightAware ADS-B
10:48PM 40.7785 -102.8740 244° Southwest 425 489 32,600 -1,020 Descending FlightAware ADS-B
10:49PM 40.7530 -102.9440 244° Southwest 423 487 32,100 -960 Descending FlightAware ADS-B
10:49PM 40.7280 -103.0120 244° Southwest 431 496 31,700 -960 Descending FlightAware ADS-B
10:50PM 40.7017 -103.0830 244° Southwest 432 497 31,200 -1,020 Descending FlightAware ADS-B
10:50PM 40.6741 -103.1580 244° Southwest 436 502 30,700 -960 Descending FlightAware ADS-B
10:51PM 40.6473 -103.2310 244° Southwest 433 498 30,200 -1,020 Descending FlightAware ADS-B
10:51PM 40.6205 -103.3030 244° Southwest 434 499 29,700 -1,200 Descending FlightAware ADS-B
10:52PM 40.5930 -103.3770 244° Southwest 439 505 29,000 -2,400 Descending FlightAware ADS-B
10:52PM 40.5663 -103.4490 244° Southwest 437 503 27,300 -3,180 Descending FlightAware ADS-B
10:53PM 40.5396 -103.5200 244° Southwest 425 489 25,800 -2,880 Descending FlightAware ADS-B
10:53PM 40.5132 -103.5900 244° Southwest 416 479 24,400 -2,820 Descending FlightAware ADS-B
10:54PM 40.4879 -103.6580 244° Southwest 408 470 23,000 -2,760 Descending FlightAware ADS-B
10:54PM 40.4628 -103.7250 244° Southwest 398 458 21,600 -2,700 Descending FlightAware ADS-B
10:55PM 40.4384 -103.7900 244° Southwest 390 449 20,300 -2,220 Descending FlightAware ADS-B
10:55PM 40.4145 -103.8530 244° Southwest 371 427 19,400 -1,380 Descending FlightAware ADS-B
10:56PM 40.3946 -103.9050 243° Southwest 349 402 19,000 -900 Descending FlightAware ADS-B
10:56PM 40.3736 -103.9610 244° Southwest 326 375 18,600 -720 Descending FlightAware ADS-B
10:56PM 40.3654 -103.9830 244° Southwest 317 365 18,500 -360 Descending FlightAware ADS-B
10:56PM 40.3628 -103.9910 247° West 312 359 18,500 -780 Level FlightAware ADS-B
10:57PM 40.3586 -104.0120 255° West 300 345 18,300 -900 Descending FlightAware ADS-B
10:57PM 40.3574 -104.0250 263° West 295 339 18,200 -1,560 Descending FlightAware ADS-B
10:57PM 40.3567 -104.0800 269° West 293 337 17,300 -1,620 Descending FlightAware ADS-B
10:58PM 40.3560 -104.1260 269° West 288 331 16,700 -1,020 Descending FlightAware ADS-B
10:58PM 40.3554 -104.1770 269° West 273 314 16,400 -1,080 Descending FlightAware ADS-B
10:59PM 40.3549 -104.2180 269° West 262 302 15,700 -1,620 Descending FlightAware ADS-B
10:59PM 40.3541 -104.2650 269° West 255 293 14,900 -1,440 Descending FlightAware ADS-B
10:59PM 40.3537 -104.2980 269° West 246 283 14,500 -960 Descending FlightAware ADS-B
11:00PM 40.3533 -104.3340 269° West 234 269 14,200 -360 Descending FlightAware ADS-B
11:00PM 40.3524 -104.3740 268° West 233 268 14,200 -540 Level FlightAware ADS-B
11:01PM 40.3507 -104.4170 267° West 238 274 13,700 -1,200 Descending FlightAware ADS-B
11:01PM 40.3496 -104.4550 268° West 240 276 13,100 -1,440 Descending FlightAware ADS-B
11:02PM 40.3489 -104.4860 268° West 240 276 12,600 -1,620 Descending FlightAware ADS-B
11:02PM 40.3488 -104.5050 270° West 240 276 12,200 -1,620 Descending FlightAware ADS-B
11:02PM 40.3483 -104.5130 265° West 241 277 12,100 -1,380 Descending FlightAware ADS-B
11:02PM 40.3474 -104.5180 257° West 240 276 12,000 -1,740 Descending FlightAware ADS-B
11:02PM 40.3461 -104.5230 251° West 241 277 11,900 -1,500 Descending FlightAware ADS-B
11:02PM 40.3441 -104.5280 242° Southwest 240 276 11,800 -1,740 Descending FlightAware ADS-B
11:02PM 40.3420 -104.5320 235° Southwest 239 275 11,700 -1,380 Descending FlightAware ADS-B
11:03PM 40.3217 -104.5630 229° Southwest 239 275 11,100 -1,260 Descending FlightAware ADS-B
11:03PM 40.3025 -104.5920 229° Southwest 242 278 10,600 -1,020 Descending FlightAware ADS-B
11:03PM 40.2864 -104.6150 227° Southwest 237 273 10,300 -1,020 Descending FlightAware ADS-B
11:04PM 40.2757 -104.6310 229° Southwest 236 272 10,000 -1,380 Descending FlightAware ADS-B
11:04PM 40.2730 -104.6340 220° Southwest 236 272 9,900 -1,500 Descending FlightAware ADS-B
11:04PM 40.2691 -104.6380 218° Southwest 239 275 9,800 -1,500 Descending FlightAware ADS-B
11:04PM 40.2658 -104.6410 215° Southwest 241 277 9,700 -1,320 Descending FlightAware ADS-B
11:04PM 40.2551 -104.6480 207° Southwest 240 276 9,500 -960 Descending FlightAware ADS-B
11:04PM 40.2399 -104.6580 207° Southwest 237 273 9,300 -720 Descending FlightAware ADS-B
11:04PM 40.2300 -104.6650 208° Southwest 230 265 9,200 -360 Descending FlightAware ADS-B
11:05PM 40.2222 -104.6700 206° Southwest 222 255 9,200  Level FlightAware ADS-B
11:05PM 40.2095 -104.6780 206° Southwest 209 241 9,200  Level FlightAware ADS-B
11:05PM 40.2044 -104.6800 197° South 205 236 9,200  Level FlightAware ADS-B
11:05PM 40.2014 -104.6810 194° South 203 234 9,200  Level FlightAware ADS-B
11:05PM 40.1980 -104.6820 193° South 202 232 9,200  Level FlightAware ADS-B
11:05PM 40.1918 -104.6830 187° South 200 230 9,200  Level FlightAware ADS-B
11:05PM 40.1820 -104.6840 184° South 197 227 9,200  Level FlightAware ADS-B
11:05PM 40.1747 -104.6840 180° South 197 227 9,200 240 Level FlightAware ADS-B
11:06PM 40.1624 -104.6840 180° South 200 230 9,300 240 Climbing FlightAware ADS-B
11:06PM 40.1522 -104.6840 180° South 198 228 9,300  Level FlightAware ADS-B
11:06PM 40.1414 -104.6840 180° South 198 228 9,300  Level FlightAware ADS-B
11:06PM 40.1273 -104.6840 180° South 196 226 9,300 -300 Level FlightAware ADS-B
11:06PM 40.1203 -104.6840 180° South 193 222 9,200 -300 Descending FlightAware ADS-B
11:07PM 40.1067 -104.6840 180° South 192 221 9,200 -240 Level FlightAware ADS-B
11:07PM 40.0938 -104.6850 183° South 195 224 9,100 -480 Descending FlightAware ADS-B
11:07PM 40.0844 -104.6850 180° South 197 227 9,000 -900 Descending FlightAware ADS-B
11:07PM 40.0762 -104.6850 180° South 197 227 8,800 -1,200 Descending FlightAware ADS-B
11:07PM 40.0654 -104.6850 180° South 196 226 8,600 -900 Descending FlightAware ADS-B
11:08PM 40.0567 -104.6840 175° South 196 226 8,500 -960 Descending FlightAware ADS-B
11:08PM 40.0480 -104.6830 175° South 197 227 8,300 -1,320 Descending FlightAware ADS-B
11:08PM 40.0396 -104.6830 180° South 198 228 8,100 -1,200 Descending FlightAware ADS-B
11:08PM 40.0261 -104.6830 180° South 193 222 7,800 -960 Descending FlightAware ADS-B
11:08PM 40.0159 -104.6830 180° South 192 221 7,700 -600 Descending FlightAware ADS-B
11:09PM 40.0079 -104.6840 185° South 191 220 7,600 -900 Descending FlightAware ADS-B
11:09PM 39.9982 -104.6840 180° South 185 213 7,400 -780 Descending FlightAware ADS-B
11:09PM 39.9875 -104.6850 184° South 178 205 7,300 -780 Descending FlightAware ADS-B
11:09PM 39.9791 -104.6860 185° South 171 197 7,100 -1,140 Descending FlightAware ADS-B
11:09PM 39.9705 -104.6860 180° South 167 192 6,900 -1,020 Descending FlightAware ADS-B
11:10PM 39.9606 -104.6860 180° South 162 186 6,700 -840 Descending FlightAware ADS-B
11:10PM 39.9524 -104.6860 180° South 161 185 6,600 -660 Descending FlightAware ADS-B
11:10PM 39.9463 -104.6860 180° South 161 185 6,500 -720 Descending FlightAware ADS-B
11:10PM 39.9401 -104.6860 180° South 159 183 6,400 -840 Descending FlightAware ADS-B
11:10PM 39.9349 -104.6860 180° South 160 184 6,300 -660 Descending FlightAware ADS-B
11:10PM 39.9264 -104.6870 185° South 162 186 6,200 -780 Descending FlightAware ADS-B
11:11PM 39.9169 -104.6870 180° South 164 189 6,000 -900 Descending FlightAware ADS-B
11:11PM 39.9107 -104.6870 180° South 165 190 5,900 -840 Descending FlightAware ADS-B
11:11PM 39.9052 -104.6870 180° South 165 190 5,800 -900 Descending FlightAware ADS-B
11:11PM 39.9000 -104.6870 180° South 164 189 5,700 -900 Descending FlightAware ADS-B
11:11PM 39.8952 -104.6870 180° South 164 189 5,600 -900 Descending FlightAware ADS-B